Time;durP1;ratioP1;P1;durP2;ratioP2;P2;SDS_P1;SDS_P2;PMS_P1;PMS_P2;Temp;Humidity;BMP_temperature;BMP_pressure;BME280_temperature;BME280_humidity;BME280_pressure;Samples;Min_cycle;Max_cycle;Signal;HPM_P1;HPM_P2
2021/01/21 00:02:09;;;;;;;18.35;10.90;;;2.20;74.20;;;;;;5013696;28;20061;-64
2021/01/21 00:04:34;;;;;;;18.42;10.77;;;2.20;74.30;;;;;;5012591;28;20042;-62
2021/01/21 00:07:00;;;;;;;16.33;9.98;;;2.20;74.30;;;;;;5043106;28;20177;-62
2021/01/21 00:09:25;;;;;;;14.45;8.80;;;2.10;74.10;;;;;;5012301;28;20045;-63
2021/01/21 00:11:51;;;;;;;16.40;9.45;;;2.10;74.10;;;;;;5001090;28;20073;-63
2021/01/21 00:14:16;;;;;;;14.02;9.13;;;2.10;74.30;;;;;;4994377;28;20030;-64
2021/01/21 00:16:42;;;;;;;13.15;8.90;;;2.10;74.40;;;;;;5013019;28;20069;-62
2021/01/21 00:19:08;;;;;;;13.77;8.90;;;2.10;74.50;;;;;;4997406;28;20347;-62
2021/01/21 00:21:33;;;;;;;14.75;9.07;;;2.10;74.60;;;;;;4995288;28;20042;-62
2021/01/21 00:23:59;;;;;;;14.85;8.52;;;2.10;74.50;;;;;;4995694;28;20037;-63
2021/01/21 00:26:25;;;;;;;15.48;8.85;;;2.10;74.50;;;;;;4993259;28;20046;-62
2021/01/21 00:28:51;;;;;;;13.50;8.55;;;2.10;74.50;;;;;;5011297;28;20117;-63
2021/01/21 00:31:17;;;;;;;11.45;7.55;;;2.10;74.50;;;;;;5012730;28;20037;-63
2021/01/21 00:33:42;;;;;;;13.52;8.02;;;2.10;74.60;;;;;;5016728;28;20037;-63
2021/01/21 00:36:08;;;;;;;12.63;7.32;;;2.10;74.50;;;;;;5013814;28;20120;-63
2021/01/21 00:38:34;;;;;;;11.30;7.22;;;2.10;74.50;;;;;;5017850;28;20034;-63
2021/01/21 00:41:00;;;;;;;11.20;7.35;;;2.10;74.60;;;;;;5015470;28;20028;-63
2021/01/21 00:43:25;;;;;;;10.25;6.72;;;2.20;74.60;;;;;;5015402;28;20120;-63
2021/01/21 00:45:51;;;;;;;13.13;7.28;;;2.10;74.50;;;;;;5015466;28;20042;-62
2021/01/21 00:48:18;;;;;;;14.45;8.73;;;2.20;74.60;;;;;;5017509;28;20133;-63
2021/01/21 00:50:44;;;;;;;14.15;7.72;;;2.20;74.50;;;;;;5016195;28;20045;-60
2021/01/21 00:53:09;;;;;;;12.73;8.43;;;2.20;74.50;;;;;;5013408;28;20038;-63
2021/01/21 00:55:35;;;;;;;11.77;7.68;;;2.20;74.50;;;;;;5013010;28;20030;-63
2021/01/21 00:58:01;;;;;;;11.68;7.40;;;2.20;74.60;;;;;;5012007;28;20073;-63
2021/01/21 01:00:26;;;;;;;15.68;8.55;;;2.20;74.60;;;;;;5010347;28;20038;-63
2021/01/21 01:02:52;;;;;;;15.07;8.10;;;2.20;74.80;;;;;;5013263;28;20104;-62
2021/01/21 01:05:17;;;;;;;13.13;7.90;;;2.20;74.80;;;;;;5015008;28;20045;-62
2021/01/21 01:07:43;;;;;;;15.57;9.05;;;2.20;74.90;;;;;;5019821;28;20038;-62
2021/01/21 01:10:09;;;;;;;16.80;9.57;;;2.20;75.00;;;;;;5018329;28;20036;-62
2021/01/21 01:12:36;;;;;;;15.60;8.80;;;2.20;75.00;;;;;;5014894;28;20038;-62
2021/01/21 01:15:05;;;;;;;15.95;9.55;;;2.20;75.00;;;;;;5020434;28;20041;-62
2021/01/21 01:17:30;;;;;;;16.42;9.43;;;2.20;75.00;;;;;;5016052;28;20038;-62
2021/01/21 01:19:56;;;;;;;16.83;9.10;;;2.30;75.20;;;;;;5017205;28;20091;-62
2021/01/21 01:22:21;;;;;;;15.55;9.05;;;2.20;75.20;;;;;;5015885;28;20030;-62
2021/01/21 01:24:47;;;;;;;13.18;8.80;;;2.20;75.00;;;;;;5016035;28;20041;-62
2021/01/21 01:27:12;;;;;;;14.77;9.50;;;2.30;75.00;;;;;;5015027;28;20036;-62
2021/01/21 01:29:38;;;;;;;15.13;10.02;;;2.30;75.00;;;;;;5013194;28;20650;-63
2021/01/21 01:32:04;;;;;;;13.68;8.38;;;2.30;74.90;;;;;;5013850;28;20029;-62
2021/01/21 01:34:30;;;;;;;14.02;9.13;;;2.30;74.80;;;;;;5015100;28;20036;-62
2021/01/21 01:36:55;;;;;;;15.52;9.63;;;2.30;74.80;;;;;;5017449;28;20579;-63
2021/01/21 01:39:21;;;;;;;14.40;9.05;;;2.30;74.80;;;;;;5016368;28;20086;-62
2021/01/21 01:41:47;;;;;;;15.73;9.50;;;2.30;74.80;;;;;;5017661;28;20048;-60
2021/01/21 01:44:13;;;;;;;14.68;9.15;;;2.30;74.80;;;;;;5020054;28;20060;-62
2021/01/21 01:46:38;;;;;;;14.85;9.25;;;2.30;74.60;;;;;;5016070;28;20033;-63
2021/01/21 01:49:04;;;;;;;17.70;9.63;;;2.30;74.70;;;;;;5017934;28;20041;-62
2021/01/21 01:51:30;;;;;;;16.33;9.50;;;2.30;74.60;;;;;;5018489;28;20043;-62
2021/01/21 01:53:59;;;;;;;15.65;9.45;;;2.30;74.60;;;;;;5018194;28;20041;-62
2021/01/21 01:56:25;;;;;;;16.98;9.73;;;2.20;74.60;;;;;;5012841;28;20137;-62
2021/01/21 01:58:51;;;;;;;14.07;8.57;;;2.20;74.70;;;;;;5015886;28;20125;-63
2021/01/21 02:01:18;;;;;;;13.82;8.90;;;2.20;74.70;;;;;;5017638;28;20045;-62
2021/01/21 02:03:44;;;;;;;14.75;8.85;;;2.10;74.70;;;;;;5017430;28;20044;-62
2021/01/21 02:06:10;;;;;;;17.95;9.52;;;2.10;74.80;;;;;;5012660;28;20038;-62
2021/01/21 02:08:35;;;;;;;15.05;9.20;;;2.10;74.80;;;;;;5013293;28;20690;-63
2021/01/21 02:11:14;;;;;;;14.50;8.90;;;2.10;74.80;;;;;;5016760;28;20029;-63
2021/01/21 02:13:51;;;;;;;14.52;8.95;;;2.10;75.10;;;;;;5015023;28;20683;-63
2021/01/21 02:16:41;;;;;;;16.95;9.05;;;2.10;75.20;;;;;;5015562;28;20041;-62
2021/01/21 02:19:25;;;;;;;13.13;8.30;;;2.00;75.50;;;;;;5017170;28;20034;-63
2021/01/21 02:22:21;;;;;;;13.98;8.52;;;2.00;75.50;;;;;;5015123;28;20682;-62
2021/01/21 02:25:28;;;;;;;11.07;7.28;;;2.00;75.50;;;;;;5012219;28;20041;-62
2021/01/21 02:28:02;;;;;;;11.70;7.32;;;2.00;75.70;;;;;;5014208;28;20205;-62
2021/01/21 02:30:50;;;;;;;12.77;8.02;;;2.00;75.50;;;;;;5013181;28;20030;-62
2021/01/21 02:33:40;;;;;;;11.48;7.97;;;2.00;75.50;;;;;;5013987;28;20030;-62
2021/01/21 02:36:13;;;;;;;14.20;8.90;;;2.00;75.50;;;;;;5034180;28;20452;-63
2021/01/21 02:38:41;;;;;;;12.55;7.97;;;2.10;75.40;;;;;;5018471;28;20037;-61
2021/01/21 02:41:07;;;;;;;13.93;8.35;;;2.00;75.30;;;;;;5017304;28;20037;-61
2021/01/21 02:43:32;;;;;;;12.65;8.15;;;2.00;75.40;;;;;;5017788;28;20588;-62
2021/01/21 02:45:58;;;;;;;13.80;8.57;;;2.00;75.50;;;;;;5018206;28;20042;-62
2021/01/21 02:48:23;;;;;;;14.73;8.73;;;2.10;76.40;;;;;;5017682;28;20124;-59
2021/01/21 02:50:58;;;;;;;16.25;8.45;;;2.10;75.50;;;;;;5018056;28;20033;-62
2021/01/21 02:53:25;;;;;;;13.93;8.13;;;2.10;75.70;;;;;;5017804;28;20508;-62
2021/01/21 02:55:53;;;;;;;12.70;7.88;;;2.10;75.70;;;;;;5049672;28;20025;-62
2021/01/21 02:58:30;;;;;;;11.88;8.10;;;2.20;75.70;;;;;;5017135;28;20095;-60
2021/01/21 03:01:01;;;;;;;11.15;7.15;;;2.20;75.90;;;;;;5017621;28;20436;-63
2021/01/21 03:03:28;;;;;;;10.10;7.35;;;2.20;75.90;;;;;;5049356;28;20437;-61
2021/01/21 03:05:57;;;;;;;13.00;7.32;;;2.30;75.80;;;;;;5017762;28;20519;-62
2021/01/21 03:08:26;;;;;;;14.20;7.05;;;2.30;75.90;;;;;;5017345;28;20037;-62
2021/01/21 03:10:51;;;;;;;11.68;6.97;;;2.30;75.90;;;;;;5016767;28;20062;-62
2021/01/21 03:13:17;;;;;;;9.93;6.97;;;2.40;75.80;;;;;;5016138;28;20030;-62
2021/01/21 03:15:42;;;;;;;10.40;7.07;;;2.40;75.70;;;;;;5012832;28;20123;-63
2021/01/21 03:18:08;;;;;;;11.35;7.35;;;2.50;75.90;;;;;;5013115;28;20607;-62
2021/01/21 03:20:34;;;;;;;10.18;6.93;;;2.40;75.70;;;;;;5013893;28;20044;-62
2021/01/21 03:22:59;;;;;;;9.93;6.15;;;2.50;75.80;;;;;;5014204;28;20035;-62
2021/01/21 03:25:25;;;;;;;10.00;6.57;;;2.50;75.90;;;;;;5012464;28;20041;-62
2021/01/21 03:27:50;;;;;;;9.57;6.30;;;2.50;75.90;;;;;;5015094;28;20057;-61
2021/01/21 03:30:17;;;;;;;11.02;6.60;;;2.60;75.90;;;;;;5012987;28;20050;-61
2021/01/21 03:32:42;;;;;;;9.38;6.93;;;2.60;75.80;;;;;;5014687;28;20037;-62
2021/01/21 03:35:08;;;;;;;9.98;6.40;;;2.60;75.70;;;;;;5016796;28;20099;-60
2021/01/21 03:37:34;;;;;;;10.23;6.70;;;2.60;75.70;;;;;;5017215;28;20033;-62
2021/01/21 03:40:00;;;;;;;10.40;6.05;;;2.60;75.70;;;;;;5016880;28;20433;-61
2021/01/21 03:42:25;;;;;;;9.60;6.38;;;2.70;75.90;;;;;;5017192;28;20040;-61
2021/01/21 03:44:51;;;;;;;9.27;5.20;;;2.70;75.80;;;;;;5015394;28;20033;-61
2021/01/21 03:47:17;;;;;;;8.38;5.20;;;2.70;75.70;;;;;;5013360;28;20033;-62
2021/01/21 03:49:42;;;;;;;7.40;5.18;;;2.80;75.70;;;;;;5001843;28;20417;-62
2021/01/21 03:52:08;;;;;;;6.75;5.10;;;2.80;75.70;;;;;;5009914;28;20048;-62
2021/01/21 03:54:33;;;;;;;7.88;5.28;;;2.90;75.80;;;;;;4996915;28;22763;-62
2021/01/21 03:56:59;;;;;;;8.48;5.05;;;2.90;75.80;;;;;;5012797;28;20041;-62
2021/01/21 03:59:25;;;;;;;8.20;4.82;;;2.90;75.80;;;;;;5011165;28;20091;-60
2021/01/21 04:01:50;;;;;;;6.82;5.07;;;2.90;75.70;;;;;;5009935;28;20042;-62
2021/01/21 04:04:16;;;;;;;6.50;4.35;;;2.90;75.70;;;;;;5012127;28;20037;-62
2021/01/21 04:06:42;;;;;;;7.38;4.55;;;2.90;75.70;;;;;;5048561;28;20037;-62
2021/01/21 04:09:07;;;;;;;7.10;5.00;;;3.00;75.70;;;;;;5015876;28;20468;-60
2021/01/21 04:11:33;;;;;;;8.45;5.57;;;3.00;75.60;;;;;;5010319;28;20747;-62
2021/01/21 04:13:58;;;;;;;8.18;4.97;;;3.00;75.50;;;;;;5016924;28;20125;-62
2021/01/21 04:16:24;;;;;;;6.68;4.63;;;3.00;75.50;;;;;;5016311;28;20061;-62
2021/01/21 04:18:50;;;;;;;6.78;4.05;;;3.10;75.50;;;;;;5015015;28;20100;-62
2021/01/21 04:21:15;;;;;;;7.25;4.20;;;3.10;75.50;;;;;;5012674;28;20118;-61
2021/01/21 04:23:41;;;;;;;6.43;3.92;;;3.10;75.50;;;;;;5014350;28;20045;-62
2021/01/21 04:26:07;;;;;;;6.68;4.20;;;3.10;75.60;;;;;;5017957;28;20033;-62
2021/01/21 04:28:32;;;;;;;6.85;4.20;;;3.10;75.50;;;;;;5016088;28;20487;-62
2021/01/21 04:30:58;;;;;;;5.63;4.10;;;3.10;75.50;;;;;;5015445;28;20033;-62
2021/01/21 04:33:23;;;;;;;7.90;5.13;;;3.10;75.50;;;;;;5014052;28;20038;-62
2021/01/21 04:35:50;;;;;;;8.65;5.30;;;3.10;75.50;;;;;;5012061;28;20036;-62
2021/01/21 04:38:15;;;;;;;35.92;13.82;;;3.10;75.50;;;;;;5023129;28;20043;-62
2021/01/21 04:40:41;;;;;;;35.47;12.73;;;3.20;75.50;;;;;;5016759;28;20042;-63
2021/01/21 04:43:07;;;;;;;27.13;11.02;;;3.10;75.50;;;;;;5014771;28;20543;-62
2021/01/21 04:45:32;;;;;;;31.75;12.13;;;3.20;75.50;;;;;;5021294;28;20125;-56
2021/01/21 04:47:59;;;;;;;18.45;8.20;;;3.20;75.60;;;;;;5019704;28;20447;-62
2021/01/21 04:50:26;;;;;;;17.42;8.07;;;3.20;75.50;;;;;;5017436;28;20176;-62
2021/01/21 04:52:54;;;;;;;21.98;8.75;;;3.20;75.50;;;;;;5015427;28;20037;-62
2021/01/21 04:55:30;;;;;;;27.02;12.55;;;3.20;75.50;;;;;;5020202;28;20102;-62
2021/01/21 04:58:07;;;;;;;29.20;12.30;;;3.20;75.50;;;;;;5020169;28;20054;-62
2021/01/21 05:00:32;;;;;;;20.23;9.38;;;3.30;75.50;;;;;;5019484;28;20483;-62
2021/01/21 05:02:59;;;;;;;13.65;7.20;;;3.30;75.40;;;;;;5021317;28;20038;-62
2021/01/21 05:05:25;;;;;;;13.38;6.38;;;3.30;75.40;;;;;;5017110;28;20041;-62
2021/01/21 05:07:51;;;;;;;12.43;6.15;;;3.30;75.40;;;;;;5016735;28;20042;-61
2021/01/21 05:10:18;;;;;;;10.23;5.60;;;3.30;75.30;;;;;;5015363;28;20121;-62
2021/01/21 05:12:44;;;;;;;9.35;5.40;;;3.30;75.30;;;;;;5028903;28;20037;-62
2021/01/21 05:15:10;;;;;;;7.47;4.00;;;3.40;75.30;;;;;;5019197;28;20040;-63
2021/01/21 05:17:36;;;;;;;5.50;3.22;;;3.40;75.20;;;;;;5019459;28;20038;-61
2021/01/21 05:20:02;;;;;;;6.07;3.60;;;3.40;75.20;;;;;;5018549;28;21834;-62
2021/01/21 05:22:28;;;;;;;6.07;3.67;;;3.40;75.30;;;;;;5017001;28;20441;-62
2021/01/21 05:24:54;;;;;;;6.40;3.47;;;3.50;75.30;;;;;;5017858;28;20025;-61
2021/01/21 05:27:21;;;;;;;5.03;3.45;;;3.50;75.30;;;;;;5019317;28;20612;-63
2021/01/21 05:29:48;;;;;;;5.57;3.60;;;3.60;75.20;;;;;;5014229;28;20061;-62
2021/01/21 05:32:16;;;;;;;5.60;3.67;;;3.70;75.20;;;;;;5014551;28;20571;-62
2021/01/21 05:34:44;;;;;;;6.53;3.67;;;3.70;75.00;;;;;;5013546;28;20074;-61
2021/01/21 05:37:11;;;;;;;4.45;3.50;;;3.80;75.00;;;;;;5020639;28;20030;-62
2021/01/21 05:39:41;;;;;;;5.25;3.15;;;3.80;74.80;;;;;;5020686;28;20048;-62
2021/01/21 05:42:07;;;;;;;4.15;3.10;;;3.90;74.70;;;;;;5018397;28;20137;-63
2021/01/21 05:44:33;;;;;;;4.03;2.63;;;3.90;74.60;;;;;;5017724;28;20038;-61
2021/01/21 05:47:04;;;;;;;3.45;2.80;;;4.00;74.60;;;;;;5019038;28;20068;-62
2021/01/21 05:49:29;;;;;;;4.70;3.42;;;4.00;74.40;;;;;;5018758;28;20042;-62
2021/01/21 05:51:57;;;;;;;6.28;3.50;;;4.00;74.30;;;;;;5017985;28;20479;-62
2021/01/21 05:54:24;;;;;;;6.40;3.80;;;4.10;74.20;;;;;;5018858;28;20456;-61
2021/01/21 05:56:51;;;;;;;6.00;4.15;;;4.10;74.10;;;;;;5018527;28;20065;-62
2021/01/21 05:59:17;;;;;;;6.68;4.05;;;4.10;74.10;;;;;;5019116;28;20054;-62
2021/01/21 06:01:43;;;;;;;6.15;4.00;;;4.10;74.00;;;;;;5019289;28;20485;-61
2021/01/21 06:04:11;;;;;;;5.95;4.10;;;4.20;73.90;;;;;;5019646;28;20041;-61
2021/01/21 06:06:39;;;;;;;7.63;5.07;;;4.10;73.70;;;;;;5019329;28;20504;-61
2021/01/21 06:09:07;;;;;;;5.70;4.32;;;4.20;73.50;;;;;;5019255;28;20692;-62
2021/01/21 06:11:32;;;;;;;6.78;4.15;;;4.10;73.40;;;;;;5018724;28;20048;-62
2021/01/21 06:13:59;;;;;;;6.68;4.05;;;4.10;73.40;;;;;;5020181;28;20404;-62
2021/01/21 06:16:26;;;;;;;5.10;3.30;;;4.00;73.30;;;;;;5018031;28;20041;-61
2021/01/21 06:18:52;;;;;;;4.90;3.50;;;4.00;73.30;;;;;;5018454;28;20045;-63
2021/01/21 06:21:22;;;;;;;7.10;3.75;;;4.00;73.30;;;;;;5018972;28;20030;-62
2021/01/21 06:24:02;;;;;;;5.50;3.47;;;4.00;73.40;;;;;;5019873;28;20347;-62
2021/01/21 06:26:41;;;;;;;4.07;2.97;;;4.00;73.40;;;;;;5019088;28;20077;-62
2021/01/21 06:29:14;;;;;;;5.22;2.97;;;4.10;73.80;;;;;;5017671;28;20132;-62
2021/01/21 06:31:41;;;;;;;4.50;3.20;;;4.10;73.80;;;;;;5019619;28;20049;-62
2021/01/21 06:34:19;;;;;;;6.82;2.53;;;4.10;74.50;;;;;;5018904;28;20038;-60
2021/01/21 06:36:51;;;;;;;3.70;2.25;;;4.10;74.30;;;;;;5018973;28;20041;-61
2021/01/21 06:39:26;;;;;;;2.97;2.17;;;4.10;73.30;;;;;;5019493;28;20402;-62
2021/01/21 06:41:53;;;;;;;;;;;4.10;73.60;;;;;;5050140;28;20069;-62
2021/01/21 06:44:19;;;;;;;11.05;6.15;;;4.20;73.50;;;;;;5020051;28;19959;-62
2021/01/21 06:46:46;;;;;;;7.22;4.63;;;4.20;73.40;;;;;;5019657;28;20046;-62
2021/01/21 06:49:16;;;;;;;5.47;3.70;;;4.20;73.30;;;;;;5049543;28;20594;-61
2021/01/21 06:51:45;;;;;;;8.15;4.68;;;4.20;73.00;;;;;;5007856;28;20073;-61
2021/01/21 06:54:12;;;;;;;5.82;3.95;;;4.10;72.90;;;;;;5000077;28;20034;-62
2021/01/21 06:56:38;;;;;;;5.05;2.80;;;4.10;72.90;;;;;;5015878;28;20034;-62
2021/01/21 06:59:03;;;;;;;4.32;2.75;;;4.10;73.00;;;;;;4998394;28;20088;-62
2021/01/21 07:01:32;;;;;;;2.83;2.05;;;4.10;73.00;;;;;;4998405;28;20061;-63
2021/01/21 07:04:20;;;;;;;1.85;1.45;;;4.20;73.10;;;;;;4999499;28;20096;-62
2021/01/21 07:06:52;;;;;;;2.17;1.70;;;4.20;72.60;;;;;;5018019;28;20037;-62
2021/01/21 07:09:22;;;;;;;2.20;1.52;;;4.30;72.70;;;;;;5018505;28;20037;-62
2021/01/21 07:11:49;;;;;;;1.75;1.30;;;4.50;72.70;;;;;;5016250;28;20095;-62
2021/01/21 07:14:17;;;;;;;1.70;1.00;;;4.60;72.50;;;;;;5018148;28;20057;-63
2021/01/21 07:17:13;;;;;;;1.52;1.27;;;4.80;71.90;;;;;;5018647;28;20514;-62
2021/01/21 07:19:43;;;;;;;1.30;1.10;;;4.90;70.80;;;;;;5021380;28;20056;-62
2021/01/21 07:22:23;;;;;;;2.03;1.27;;;5.00;71.20;;;;;;5017907;28;20041;-62
2021/01/21 07:24:53;;;;;;;2.28;1.50;;;5.20;70.60;;;;;;5047093;28;20033;-63
2021/01/21 07:27:20;;;;;;;2.00;1.40;;;5.30;70.60;;;;;;5018793;28;20048;-62
2021/01/21 07:29:45;;;;;;;1.55;1.23;;;5.40;70.20;;;;;;5016721;28;20046;-62
2021/01/21 07:32:11;;;;;;;2.20;1.50;;;5.60;70.10;;;;;;5017125;28;20045;-62
2021/01/21 07:34:39;;;;;;;4.13;1.60;;;5.70;69.60;;;;;;5017376;28;20037;-62
2021/01/21 07:37:22;;;;;;;4.72;1.70;;;5.70;69.30;;;;;;5017747;28;20098;-62
2021/01/21 07:40:04;;;;;;;2.60;1.50;;;5.80;68.30;;;;;;5016911;28;20497;-63
2021/01/21 07:42:38;;;;;;;2.60;1.20;;;5.90;68.20;;;;;;5017237;28;20042;-63
2021/01/21 07:45:13;;;;;;;1.52;1.30;;;5.90;68.40;;;;;;5017584;28;20553;-62
2021/01/21 07:47:40;;;;;;;3.88;1.55;;;6.00;68.40;;;;;;5017894;28;20033;-62
2021/01/21 07:50:25;;;;;;;1.90;1.42;;;6.00;68.00;;;;;;5017097;28;20045;-63
2021/01/21 07:52:53;;;;;;;2.55;1.45;;;6.10;67.50;;;;;;5017849;28;20038;-64
2021/01/21 07:55:28;;;;;;;2.90;1.80;;;6.20;68.00;;;;;;5018519;28;20091;-64
2021/01/21 07:58:12;;;;;;;2.75;2.20;;;6.20;67.20;;;;;;5029875;28;20040;-64
2021/01/21 08:00:38;;;;;;;1.80;1.48;;;6.20;67.90;;;;;;5015732;28;20048;-63
2021/01/21 08:03:03;;;;;;;3.55;2.40;;;6.30;67.90;;;;;;5009051;28;20030;-63
2021/01/21 08:05:29;;;;;;;4.63;2.00;;;6.30;67.80;;;;;;5017393;28;20075;-63
2021/01/21 08:07:56;;;;;;;2.90;2.00;;;6.40;67.70;;;;;;5017475;28;20525;-64
2021/01/21 08:10:26;;;;;;;3.05;2.20;;;6.30;67.40;;;;;;5015261;28;20120;-63
2021/01/21 08:12:54;;;;;;;3.22;1.92;;;6.30;67.30;;;;;;5045502;28;20049;-64
2021/01/21 08:15:21;;;;;;;3.97;2.42;;;6.30;67.20;;;;;;5017789;28;20045;-64
2021/01/21 08:17:50;;;;;;;8.13;3.00;;;6.30;67.20;;;;;;5016438;28;20058;-64
2021/01/21 08:20:24;;;;;;;6.93;3.47;;;6.20;67.20;;;;;;5016316;28;20524;-63
2021/01/21 08:23:00;;;;;;;5.78;3.40;;;6.10;66.90;;;;;;5016054;28;20038;-62
2021/01/21 08:25:40;;;;;;;3.67;2.13;;;6.10;67.10;;;;;;5017894;28;20519;-64
2021/01/21 08:28:07;;;;;;;2.58;2.13;;;6.10;66.90;;;;;;5017990;28;20069;-62
2021/01/21 08:30:33;;;;;;;6.20;2.33;;;6.10;67.50;;;;;;5016890;28;20416;-64
2021/01/21 08:33:00;;;;;;;3.90;2.30;;;6.10;67.70;;;;;;5014364;28;20036;-63
2021/01/21 08:35:29;;;;;;;4.57;2.90;;;6.10;67.90;;;;;;5016926;28;20124;-64
2021/01/21 08:37:57;;;;;;;6.30;2.90;;;6.10;67.90;;;;;;5015924;28;20036;-63
2021/01/21 08:40:23;;;;;;;6.50;3.25;;;6.10;68.00;;;;;;5016920;28;20040;-65
2021/01/21 08:42:50;;;;;;;5.65;2.88;;;6.10;68.00;;;;;;5018050;28;20061;-64
2021/01/21 08:45:17;;;;;;;5.78;2.72;;;6.10;68.00;;;;;;5016824;28;20033;-64
2021/01/21 08:47:49;;;;;;;14.35;4.78;;;6.20;68.10;;;;;;5017570;28;20034;-63
2021/01/21 08:50:19;;;;;;;9.10;4.45;;;6.20;68.00;;;;;;5015909;28;20164;-64
2021/01/21 08:53:01;;;;;;;8.55;4.72;;;6.30;68.00;;;;;;5048229;28;20040;-64
2021/01/21 08:55:47;;;;;;;8.27;4.78;;;6.30;67.50;;;;;;5016900;28;20092;-64
2021/01/21 08:58:14;;;;;;;7.97;3.20;;;6.30;67.50;;;;;;5015845;28;20517;-64
2021/01/21 09:00:59;;;;;;;5.75;2.78;;;6.30;67.90;;;;;;5015968;28;20061;-63
2021/01/21 09:03:54;;;;;;;6.70;2.38;;;6.40;67.70;;;;;;5017012;28;20034;-64
2021/01/21 09:06:21;;;;;;;3.88;2.33;;;6.50;67.90;;;;;;5018459;28;20502;-64
2021/01/21 09:08:49;;;;;;;2.42;2.00;;;6.50;68.20;;;;;;5016038;28;20041;-64
2021/01/21 09:11:37;;;;;;;3.50;2.28;;;6.50;68.20;;;;;;5009043;28;20034;-65
2021/01/21 09:14:05;;;;;;;2.88;1.85;;;6.60;68.00;;;;;;4997138;28;20057;-65
2021/01/21 09:16:51;;;;;;;4.47;1.92;;;6.60;69.20;;;;;;4994598;28;20045;-65
2021/01/21 09:19:37;;;;;;;5.47;2.60;;;6.70;67.90;;;;;;5036350;28;20038;-65
2021/01/21 09:22:10;;;;;;;4.00;2.45;;;6.80;68.00;;;;;;5003095;28;20068;-66
2021/01/21 09:25:00;;;;;;;3.83;2.30;;;6.90;68.30;;;;;;4997005;28;20034;-63
2021/01/21 09:27:30;;;;;;;3.00;2.00;;;6.90;68.00;;;;;;5000985;28;20040;-65
2021/01/21 09:29:58;;;;;;;4.72;2.10;;;6.90;68.30;;;;;;4998989;28;20050;-64
2021/01/21 09:32:32;;;;;;;3.08;1.90;;;7.00;68.30;;;;;;5001223;28;20060;-64
2021/01/21 09:35:25;;;;;;;3.00;2.20;;;7.10;68.10;;;;;;5001895;28;20038;-65
2021/01/21 09:37:54;;;;;;;2.63;1.67;;;7.10;68.00;;;;;;4998951;28;20065;-65
2021/01/21 09:40:22;;;;;;;4.43;1.85;;;7.10;68.00;;;;;;5000483;28;20106;-65
2021/01/21 09:42:49;;;;;;;2.97;1.63;;;7.20;67.80;;;;;;5019560;28;20042;-65
2021/01/21 09:45:16;;;;;;;4.05;1.70;;;7.20;68.00;;;;;;5050861;28;20034;-65
2021/01/21 09:47:41;;;;;;;4.80;2.00;;;7.30;67.80;;;;;;5019353;28;20069;-65
2021/01/21 09:50:09;;;;;;;2.00;1.75;;;7.30;67.80;;;;;;5018876;28;20057;-67
2021/01/21 09:52:35;;;;;;;3.10;1.60;;;7.30;67.60;;;;;;5019872;28;20045;-65
2021/01/21 09:55:02;;;;;;;2.38;1.67;;;7.40;67.60;;;;;;5018773;28;20072;-65
2021/01/21 09:57:28;;;;;;;5.25;2.58;;;7.50;67.60;;;;;;5019741;28;20029;-65
2021/01/21 09:59:53;;;;;;;4.78;2.42;;;7.50;67.40;;;;;;5018019;28;20034;-66
2021/01/21 10:02:19;;;;;;;2.63;2.00;;;7.50;67.40;;;;;;5019923;28;20037;-66
2021/01/21 10:04:45;;;;;;;5.00;2.15;;;7.60;67.30;;;;;;5019036;28;20073;-65
2021/01/21 10:07:11;;;;;;;2.88;1.70;;;7.60;67.10;;;;;;5019618;28;20033;-65
2021/01/21 10:09:37;;;;;;;1.98;1.60;;;7.60;67.60;;;;;;5017590;28;20409;-65
2021/01/21 10:12:05;;;;;;;2.78;1.15;;;7.70;67.10;;;;;;5018096;28;20092;-65
2021/01/21 10:14:31;;;;;;;1.55;1.30;;;7.80;67.10;;;;;;5032594;28;20037;-66
2021/01/21 10:16:57;;;;;;;2.90;1.35;;;7.80;67.30;;;;;;5018636;28;20099;-65
2021/01/21 10:19:27;;;;;;;2.03;1.70;;;7.90;66.90;;;;;;5019337;28;20625;-66
2021/01/21 10:21:52;;;;;;;3.85;1.70;;;8.00;66.60;;;;;;5020337;28;20119;-66
2021/01/21 10:24:18;;;;;;;2.72;1.50;;;8.10;66.70;;;;;;5019682;28;20505;-66
2021/01/21 10:26:44;;;;;;;1.25;1.15;;;8.10;66.60;;;;;;5019375;28;20040;-66
2021/01/21 10:29:09;;;;;;;2.92;1.38;;;8.20;66.60;;;;;;5016266;28;20129;-66
2021/01/21 10:31:35;;;;;;;2.22;1.23;;;8.30;66.60;;;;;;5017084;28;20108;-66
2021/01/21 10:34:03;;;;;;;2.00;1.40;;;8.40;66.20;;;;;;5018919;28;20034;-66
2021/01/21 10:36:28;;;;;;;2.08;1.45;;;8.50;66.00;;;;;;5019231;28;20040;-66
2021/01/21 10:38:54;;;;;;;2.00;1.38;;;8.50;65.50;;;;;;5018311;28;20041;-67
2021/01/21 10:41:20;;;;;;;1.20;1.05;;;8.60;65.70;;;;;;5018820;28;20037;-66
2021/01/21 10:43:45;;;;;;;4.22;1.40;;;8.70;65.70;;;;;;5018668;28;20037;-66
2021/01/21 10:46:11;;;;;;;5.32;1.77;;;8.70;65.70;;;;;;5018886;28;20030;-67
2021/01/21 10:48:37;;;;;;;3.65;1.90;;;8.80;65.70;;;;;;5017570;28;20128;-66
2021/01/21 10:51:03;;;;;;;2.88;1.50;;;8.90;65.20;;;;;;5018665;28;20032;-66
2021/01/21 10:53:29;;;;;;;2.42;1.15;;;8.90;65.20;;;;;;5017562;28;20038;-66
2021/01/21 10:55:54;;;;;;;1.92;1.20;;;9.00;65.30;;;;;;5018266;28;20033;-66
2021/01/21 10:58:20;;;;;;;1.50;1.10;;;9.00;65.00;;;;;;5017964;28;20067;-66
2021/01/21 11:00:47;;;;;;;2.42;1.20;;;9.10;65.90;;;;;;5017469;28;20156;-67
2021/01/21 11:03:13;;;;;;;1.80;1.10;;;9.20;64.70;;;;;;5018967;28;20033;-66
2021/01/21 11:05:40;;;;;;;2.20;1.10;;;9.40;64.20;;;;;;5018071;28;20498;-66
2021/01/21 11:08:07;;;;;;;1.55;1.05;;;9.50;63.70;;;;;;5018595;28;20034;-66
2021/01/21 11:10:33;;;;;;;6.60;4.68;;;9.50;63.70;;;;;;5016494;28;20025;-66
2021/01/21 11:12:58;;;;;;;5.13;4.30;;;9.60;63.80;;;;;;5017506;28;20038;-64
2021/01/21 11:15:24;;;;;;;2.13;1.92;;;9.70;63.20;;;;;;5017276;28;20037;-64
2021/01/21 11:17:50;;;;;;;2.72;1.20;;;9.80;63.40;;;;;;5017567;28;20038;-62
2021/01/21 11:20:16;;;;;;;2.35;1.50;;;9.80;63.80;;;;;;5018256;28;20080;-63
2021/01/21 11:22:42;;;;;;;3.55;1.65;;;9.90;62.90;;;;;;5015476;28;20033;-62
2021/01/21 11:25:10;;;;;;;3.03;1.40;;;9.90;62.40;;;;;;5017477;28;20026;-63
2021/01/21 11:27:36;;;;;;;1.92;1.50;;;9.90;62.40;;;;;;5017875;28;20465;-62
2021/01/21 11:30:07;;;;;;;1.95;1.67;;;9.90;62.30;;;;;;5016995;28;20047;-63
2021/01/21 11:32:33;;;;;;;2.40;1.63;;;9.90;62.10;;;;;;5017055;28;20057;-62
2021/01/21 11:34:59;;;;;;;1.55;1.20;;;9.90;62.10;;;;;;5017911;28;20516;-63
2021/01/21 11:37:24;;;;;;;1.85;1.50;;;9.90;62.10;;;;;;5017276;28;20048;-62
2021/01/21 11:39:50;;;;;;;3.83;1.38;;;9.80;62.20;;;;;;5018377;28;20108;-62
2021/01/21 11:42:15;;;;;;;3.63;1.48;;;9.80;62.00;;;;;;5023461;28;20104;-62
2021/01/21 11:44:41;;;;;;;1.50;1.20;;;9.80;62.00;;;;;;5017721;28;20042;-61
2021/01/21 11:47:07;;;;;;;2.28;1.20;;;9.80;61.90;;;;;;5017787;28;20061;-62
2021/01/21 11:49:32;;;;;;;2.28;1.00;;;9.80;61.70;;;;;;5015275;28;20041;-63
2021/01/21 11:51:58;;;;;;;1.58;1.10;;;9.80;61.70;;;;;;5018044;28;20103;-62
2021/01/21 11:54:24;;;;;;;1.23;1.00;;;9.80;61.80;;;;;;5017730;28;20033;-62
2021/01/21 11:56:50;;;;;;;1.67;0.90;;;9.90;62.00;;;;;;5018474;28;20142;-62
2021/01/21 11:59:16;;;;;;;1.10;0.90;;;9.90;61.90;;;;;;5017694;28;20497;-62
2021/01/21 12:01:42;;;;;;;1.40;0.90;;;9.90;61.50;;;;;;5016458;28;20076;-63
2021/01/21 12:04:08;;;;;;;1.90;0.80;;;9.90;61.30;;;;;;5017571;28;20397;-62
2021/01/21 12:06:35;;;;;;;1.00;0.90;;;10.00;61.40;;;;;;5016614;28;20069;-63
2021/01/21 12:09:02;;;;;;;3.60;1.10;;;10.00;61.90;;;;;;5016590;28;20095;-64
2021/01/21 12:11:29;;;;;;;1.85;1.10;;;10.00;61.80;;;;;;5016600;28;20041;-62
2021/01/21 12:13:55;;;;;;;1.90;1.15;;;10.10;61.70;;;;;;5016261;28;20547;-63
2021/01/21 12:16:21;;;;;;;1.33;0.93;;;10.10;61.70;;;;;;5016697;28;20547;-64
2021/01/21 12:18:47;;;;;;;0.80;0.65;;;10.10;61.70;;;;;;5016462;28;20041;-63
2021/01/21 12:21:13;;;;;;;0.68;0.40;;;10.10;61.40;;;;;;5017101;28;20420;-65
2021/01/21 12:23:39;;;;;;;1.15;0.40;;;10.20;62.20;;;;;;5016975;28;20037;-63
2021/01/21 12:26:06;;;;;;;0.85;0.47;;;10.20;62.40;;;;;;5017998;28;20034;-62
2021/01/21 12:28:35;;;;;;;0.85;0.40;;;10.20;61.20;;;;;;5016077;28;20574;-64
2021/01/21 12:31:02;;;;;;;0.73;0.35;;;10.20;61.10;;;;;;5017322;28;20030;-64
2021/01/21 12:33:28;;;;;;;0.40;0.30;;;10.30;60.80;;;;;;5017388;28;20037;-64
2021/01/21 12:35:54;;;;;;;1.48;1.00;;;10.30;60.50;;;;;;5017456;28;20042;-64
2021/01/21 12:38:20;;;;;;;2.58;0.60;;;10.30;61.10;;;;;;5017480;28;20092;-64
2021/01/21 12:40:46;;;;;;;1.05;0.60;;;10.30;61.30;;;;;;5016708;28;20030;-64
2021/01/21 12:43:12;;;;;;;0.70;0.68;;;10.40;61.50;;;;;;5017896;28;20115;-66
2021/01/21 12:45:37;;;;;;;1.42;0.80;;;10.40;61.40;;;;;;5016379;28;20413;-64
2021/01/21 12:48:03;;;;;;;4.90;1.48;;;10.40;61.20;;;;;;5018286;28;20175;-64
2021/01/21 12:50:29;;;;;;;2.60;1.00;;;10.40;61.20;;;;;;5014697;28;20493;-64
2021/01/21 12:52:54;;;;;;;2.00;1.00;;;10.30;61.00;;;;;;5017254;28;20037;-64
2021/01/21 12:55:20;;;;;;;2.83;0.98;;;10.30;61.10;;;;;;5017065;28;20061;-66
2021/01/21 12:57:47;;;;;;;0.85;0.63;;;10.30;61.20;;;;;;5016521;28;20484;-66
2021/01/21 13:00:14;;;;;;;1.48;0.43;;;10.30;61.40;;;;;;5018566;28;20421;-66